createdAt,value
2022-08-17T00:02:26.152Z,1.73
2022-08-17T00:04:55.476Z,2.00
2022-08-17T00:07:23.058Z,2.13
2022-08-17T00:09:50.356Z,2.00
2022-08-17T00:12:43.682Z,1.85
2022-08-17T00:15:08.346Z,1.90
2022-08-17T00:17:38.157Z,2.05
2022-08-17T00:20:06.440Z,1.83
2022-08-17T00:22:36.312Z,1.95
2022-08-17T00:25:12.992Z,2.05
2022-08-17T00:27:40.828Z,1.60
2022-08-17T00:30:11.246Z,2.30
2022-08-17T00:33:14.163Z,1.80
2022-08-17T00:35:30.602Z,2.00
2022-08-17T00:37:57.600Z,2.28
2022-08-17T00:40:24.908Z,2.10
2022-08-17T00:42:53.447Z,1.90
2022-08-17T00:45:20.944Z,1.95
2022-08-17T00:47:48.346Z,1.83
2022-08-17T00:50:18.847Z,2.03
2022-08-17T00:52:54.880Z,2.10
2022-08-17T00:55:24.331Z,2.35
2022-08-17T00:58:00.126Z,2.00
2022-08-17T01:00:39.323Z,1.80
2022-08-17T01:03:15.130Z,2.00
2022-08-17T01:05:42.805Z,2.08
2022-08-17T01:08:16.709Z,1.90
2022-08-17T01:11:00.582Z,1.85
2022-08-17T01:13:41.230Z,1.85
2022-08-17T01:16:28.730Z,1.67
2022-08-17T01:19:05.057Z,1.92
2022-08-17T01:21:53.054Z,2.22
2022-08-17T01:24:20.093Z,1.83
2022-08-17T01:26:48.174Z,1.80
2022-08-17T01:29:16.545Z,1.98
2022-08-17T01:31:48.617Z,2.38
2022-08-17T01:34:17.890Z,2.08
2022-08-17T01:36:48.633Z,2.03
2022-08-17T01:39:31.463Z,2.00
2022-08-17T01:42:58.886Z,1.92
2022-08-17T01:45:33.801Z,1.90
2022-08-17T01:48:01.217Z,1.90
2022-08-17T01:50:35.068Z,2.15
2022-08-17T01:53:16.929Z,2.00
2022-08-17T01:55:52.134Z,2.10
2022-08-17T01:58:21.022Z,1.90
2022-08-17T02:01:00.934Z,1.90
2022-08-17T02:05:58.069Z,2.10
2022-08-17T02:08:37.182Z,1.70
2022-08-17T02:11:13.708Z,1.75
2022-08-17T02:13:40.753Z,2.10
2022-08-17T02:16:07.735Z,1.67
2022-08-17T02:18:34.718Z,2.10
2022-08-17T02:21:02.189Z,2.40
2022-08-17T02:23:35.985Z,2.10
2022-08-17T02:26:03.232Z,2.28
2022-08-17T02:28:30.786Z,2.50
2022-08-17T02:31:03.584Z,2.80
2022-08-17T02:33:42.730Z,2.30
2022-08-17T02:36:12.845Z,2.38
2022-08-17T02:38:41.089Z,2.30
2022-08-17T02:41:08.919Z,2.03
2022-08-17T02:43:36.689Z,2.20
2022-08-17T02:46:03.689Z,2.50
2022-08-17T02:48:32.051Z,2.47
2022-08-17T02:51:00.716Z,2.63
2022-08-17T02:53:33.668Z,2.33
2022-08-17T02:56:03.946Z,2.45
2022-08-17T02:58:35.458Z,2.45
2022-08-17T03:01:09.705Z,2.45
2022-08-17T03:03:38.162Z,2.92
2022-08-17T03:06:06.254Z,3.58
2022-08-17T03:08:33.840Z,2.30
2022-08-17T03:11:00.862Z,2.53
2022-08-17T03:13:27.816Z,2.50
2022-08-17T03:15:54.844Z,2.38
2022-08-17T03:18:25.380Z,2.60
2022-08-17T03:20:59.938Z,2.80
2022-08-17T03:23:29.728Z,2.83
2022-08-17T03:28:26.072Z,2.97
2022-08-17T03:30:53.346Z,3.60
2022-08-17T03:33:20.789Z,3.28
2022-08-17T03:35:48.529Z,2.72
2022-08-17T03:38:17.393Z,2.70
2022-08-17T03:40:57.603Z,2.97
2022-08-17T03:43:29.663Z,2.97
2022-08-17T03:49:19.500Z,2.58
2022-08-17T03:52:05.419Z,2.78
2022-08-17T03:54:50.754Z,2.50
2022-08-17T03:57:19.097Z,3.20
2022-08-17T03:59:46.319Z,3.78
2022-08-17T04:02:24.695Z,2.70
2022-08-17T04:04:52.274Z,3.80
2022-08-17T04:07:22.834Z,3.40
2022-08-17T04:12:22.128Z,3.17
2022-08-17T04:14:53.245Z,2.83
2022-08-17T04:17:24.689Z,3.22
2022-08-17T04:22:32.314Z,2.95
2022-08-17T04:25:05.706Z,3.22
2022-08-17T04:27:32.724Z,2.50
2022-08-17T04:30:00.244Z,3.28
2022-08-17T04:33:03.471Z,2.95
2022-08-17T04:35:19.911Z,3.10
2022-08-17T04:37:47.398Z,3.00
2022-08-17T04:40:32.695Z,3.22
2022-08-17T04:43:16.466Z,3.20
2022-08-17T04:45:56.352Z,2.88
2022-08-17T04:48:35.466Z,3.20
2022-08-17T04:51:12.208Z,3.00
2022-08-17T04:53:54.096Z,2.75
2022-08-17T04:56:25.013Z,2.75
2022-08-17T04:58:55.028Z,2.65
2022-08-17T05:01:25.097Z,2.60
2022-08-17T05:03:56.156Z,2.80
2022-08-17T05:06:23.670Z,2.97
2022-08-17T05:08:50.754Z,3.50
2022-08-17T05:11:18.016Z,3.53
2022-08-17T05:13:45.149Z,3.40
2022-08-17T05:16:12.799Z,3.20
2022-08-17T05:18:39.823Z,3.90
2022-08-17T05:21:07.641Z,3.15
2022-08-17T05:23:42.553Z,4.38
2022-08-17T05:26:26.882Z,3.78
2022-08-17T05:28:59.634Z,3.55
2022-08-17T05:31:29.274Z,3.78
2022-08-17T05:33:56.440Z,3.47
2022-08-17T05:36:42.299Z,3.72
2022-08-17T05:39:16.341Z,3.13
2022-08-17T05:41:47.078Z,3.80
2022-08-17T05:44:14.769Z,3.67
2022-08-17T05:46:47.217Z,4.22
2022-08-17T05:49:17.106Z,4.40
2022-08-17T05:52:23.457Z,4.82
2022-08-17T05:55:18.034Z,4.68
2022-08-17T05:58:15.568Z,4.63
2022-08-17T06:01:47.681Z,4.47
2022-08-17T06:04:42.928Z,4.35
2022-08-17T06:07:40.356Z,4.57
2022-08-17T06:10:35.133Z,4.20
2022-08-17T06:13:14.369Z,4.40
2022-08-17T06:16:32.930Z,3.90
2022-08-17T06:19:11.119Z,3.83
2022-08-17T06:21:43.527Z,3.05
2022-08-17T06:24:23.865Z,4.10
2022-08-17T06:26:52.220Z,3.60
2022-08-17T06:29:41.733Z,4.05
2022-08-17T06:32:12.676Z,3.53
2022-08-17T06:34:41.948Z,3.55
2022-08-17T06:37:21.160Z,4.10
2022-08-17T06:39:58.957Z,3.58
2022-08-17T06:43:07.996Z,3.40
2022-08-17T06:45:43.318Z,4.10
2022-08-17T06:48:18.776Z,3.40
2022-08-17T06:50:59.975Z,4.10
2022-08-17T06:53:39.976Z,3.45
2022-08-17T06:56:09.877Z,3.25
2022-08-17T06:58:40.442Z,3.22
2022-08-17T07:01:16.849Z,3.50
2022-08-17T07:04:21.418Z,3.92
2022-08-17T07:07:27.123Z,3.70
2022-08-17T07:09:58.373Z,3.08
2022-08-17T07:12:38.334Z,3.08
2022-08-17T07:15:13.068Z,3.60
2022-08-17T07:17:48.093Z,3.65
2022-08-17T07:20:21.119Z,3.63
2022-08-17T07:23:07.268Z,3.85
2022-08-17T07:25:35.048Z,4.05
2022-08-17T07:28:07.670Z,3.70
2022-08-17T07:30:54.973Z,3.60
2022-08-17T07:33:28.726Z,3.38
2022-08-17T07:35:58.041Z,3.53
2022-08-17T07:38:31.495Z,3.95
2022-08-17T07:41:01.920Z,4.18
2022-08-17T07:43:31.607Z,3.50
2022-08-17T07:48:58.194Z,3.65
2022-08-17T07:51:33.803Z,3.65
2022-08-17T07:54:23.591Z,3.20
2022-08-17T07:57:14.646Z,3.50
2022-08-17T08:00:04.208Z,3.85
2022-08-17T08:02:45.479Z,3.88
2022-08-17T08:05:46.695Z,3.92
2022-08-17T08:08:33.576Z,3.30
2022-08-17T08:11:12.156Z,3.90
2022-08-17T08:13:43.571Z,3.38
2022-08-17T08:16:29.470Z,3.75
2022-08-17T08:19:02.157Z,3.60
2022-08-17T08:21:51.355Z,3.45
2022-08-17T08:24:40.072Z,3.88
2022-08-17T08:27:52.287Z,3.53
2022-08-17T08:30:21.913Z,3.10
2022-08-17T08:32:57.313Z,3.47
2022-08-17T08:35:53.445Z,3.47
2022-08-17T08:38:44.278Z,3.40
2022-08-17T08:41:20.028Z,4.70
2022-08-17T08:44:00.760Z,3.33
2022-08-17T08:46:35.939Z,3.22
2022-08-17T08:50:02.750Z,3.83
2022-08-17T08:52:51.652Z,3.40
2022-08-17T08:55:53.620Z,3.40
2022-08-17T08:58:52.190Z,3.42
2022-08-17T09:01:39.245Z,3.10
2022-08-17T09:05:10.714Z,3.40
2022-08-17T09:07:36.667Z,3.45
2022-08-17T09:10:22.090Z,3.08
2022-08-17T09:13:54.362Z,3.35
2022-08-17T09:16:40.364Z,2.80
2022-08-17T09:19:43.633Z,2.78
2022-08-17T09:22:39.262Z,3.83
2022-08-17T09:25:20.388Z,3.28
2022-08-17T09:28:00.764Z,3.28
2022-08-17T09:30:55.429Z,3.80
2022-08-17T09:33:27.580Z,3.45
2022-08-17T09:36:02.848Z,3.38
2022-08-17T09:39:17.082Z,3.38
2022-08-17T09:41:55.739Z,3.65
2022-08-17T09:44:58.619Z,3.33
2022-08-17T09:47:46.819Z,3.90
2022-08-17T09:50:55.363Z,3.53
2022-08-17T09:53:11.903Z,3.47
2022-08-17T09:56:18.325Z,3.42
2022-08-17T09:59:20.080Z,3.30
2022-08-17T10:02:15.205Z,3.22
2022-08-17T10:05:10.243Z,3.15
2022-08-17T10:08:09.206Z,2.90
2022-08-17T10:10:59.529Z,3.70
2022-08-17T10:13:53.764Z,3.42
2022-08-17T10:16:30.933Z,3.78
2022-08-17T10:19:31.292Z,3.50
2022-08-17T10:25:37.619Z,2.95
2022-08-17T10:28:20.990Z,3.17
2022-08-17T10:31:16.787Z,3.38
2022-08-17T10:34:00.989Z,2.70
2022-08-17T10:37:35.366Z,3.78
2022-08-17T10:40:45.638Z,4.53
2022-08-17T10:46:30.574Z,3.58
2022-08-17T10:49:17.375Z,4.72
2022-08-17T10:51:47.930Z,4.80
2022-08-17T10:54:45.700Z,4.72
2022-08-17T10:57:45.174Z,3.67
2022-08-17T11:00:40.745Z,4.13
2022-08-17T11:03:22.303Z,3.05
2022-08-17T11:06:25.649Z,3.60
2022-08-17T11:09:37.934Z,3.60
2022-08-17T11:12:45.828Z,3.45
2022-08-17T11:16:08.815Z,4.30
2022-08-17T11:19:09.906Z,3.45
2022-08-17T11:22:39.172Z,4.10
2022-08-17T11:25:19.912Z,3.10
2022-08-17T11:27:53.606Z,3.63
2022-08-17T11:30:50.916Z,3.65
2022-08-17T11:33:29.874Z,3.53
2022-08-17T11:36:04.055Z,3.87
2022-08-17T11:39:19.159Z,3.95
2022-08-17T11:42:25.484Z,4.18
2022-08-17T11:45:19.427Z,3.70
2022-08-17T11:48:38.110Z,3.60
2022-08-17T11:51:35.673Z,3.70
2022-08-17T11:54:33.315Z,4.30
2022-08-17T11:57:27.026Z,3.85
2022-08-17T12:00:10.829Z,3.65
2022-08-17T12:02:48.229Z,3.42
2022-08-17T12:05:21.088Z,3.10
2022-08-17T12:07:54.694Z,3.67
2022-08-17T12:10:31.819Z,3.28
2022-08-17T12:13:06.724Z,3.83
2022-08-17T12:15:49.532Z,3.65
2022-08-17T12:18:25.175Z,3.03
2022-08-17T12:21:21.360Z,3.25
2022-08-17T12:24:13.428Z,3.13
2022-08-17T12:26:43.933Z,3.08
2022-08-17T12:29:18.155Z,3.15
2022-08-17T12:32:05.791Z,2.50
2022-08-17T12:34:42.682Z,2.92
2022-08-17T12:37:24.717Z,3.00
2022-08-17T12:40:01.005Z,3.13
2022-08-17T12:42:37.499Z,2.28
2022-08-17T12:45:29.767Z,3.10
2022-08-17T12:48:11.292Z,2.65
2022-08-17T12:50:47.382Z,2.88
2022-08-17T12:53:40.218Z,2.83
2022-08-17T12:56:12.176Z,2.65
2022-08-17T12:58:53.472Z,2.90
2022-08-17T13:01:23.407Z,2.33
2022-08-17T13:06:36.875Z,3.05
2022-08-17T13:09:19.583Z,2.58
2022-08-17T13:12:00.871Z,3.00
2022-08-17T13:14:28.652Z,2.75
2022-08-17T13:16:59.830Z,3.10
2022-08-17T13:19:40.007Z,3.05
2022-08-17T13:22:12.726Z,2.72
2022-08-17T13:25:05.281Z,2.63
2022-08-17T13:27:33.897Z,2.88
2022-08-17T13:30:12.104Z,2.63
2022-08-17T13:32:48.580Z,2.30
2022-08-17T13:35:50.167Z,2.80
2022-08-17T13:38:47.240Z,2.90
2022-08-17T13:41:37.656Z,2.42
2022-08-17T13:44:34.537Z,3.33
2022-08-17T13:47:05.722Z,2.70
2022-08-17T13:49:48.310Z,3.08
2022-08-17T13:52:52.366Z,2.45
2022-08-17T13:55:22.447Z,2.38
2022-08-17T13:58:03.654Z,2.80
2022-08-17T14:00:36.686Z,2.40
2022-08-17T14:03:05.557Z,2.92
2022-08-17T14:05:33.774Z,2.60
2022-08-17T14:08:06.774Z,2.50
2022-08-17T14:10:36.316Z,2.20
2022-08-17T14:13:05.151Z,2.53
2022-08-17T14:15:54.928Z,2.33
2022-08-17T14:18:31.222Z,2.15
2022-08-17T14:21:08.249Z,2.58
2022-08-17T14:23:36.968Z,2.17
2022-08-17T14:26:04.329Z,2.00
2022-08-17T14:28:31.988Z,2.17
2022-08-17T14:31:01.143Z,2.35
2022-08-17T14:33:29.373Z,2.88
2022-08-17T14:35:57.570Z,2.30
2022-08-17T14:38:24.822Z,2.10
2022-08-17T14:40:52.142Z,2.45
2022-08-17T14:43:20.343Z,2.08
2022-08-17T14:45:47.449Z,2.22
2022-08-17T14:48:14.443Z,2.20
2022-08-17T14:50:43.717Z,2.40
2022-08-17T14:53:14.879Z,2.40
2022-08-17T14:55:42.749Z,2.45
2022-08-17T14:58:10.383Z,2.53
2022-08-17T15:00:39.327Z,2.45
2022-08-17T15:03:06.348Z,2.00
2022-08-17T15:05:37.870Z,2.33
2022-08-17T15:08:06.201Z,2.22
2022-08-17T15:10:33.309Z,2.47
2022-08-17T15:13:00.657Z,2.42
2022-08-17T15:15:28.605Z,2.60
2022-08-17T15:17:55.904Z,2.35
2022-08-17T15:20:28.005Z,2.30
2022-08-17T15:22:56.025Z,2.28
2022-08-17T15:25:27.459Z,2.08
2022-08-17T15:27:55.756Z,2.20
2022-08-17T15:30:23.495Z,2.10
2022-08-17T15:32:55.275Z,2.40
2022-08-17T15:35:31.389Z,2.00
2022-08-17T15:38:08.359Z,2.20
2022-08-17T15:40:48.647Z,2.30
2022-08-17T15:43:27.247Z,2.40
2022-08-17T15:46:01.730Z,2.00
2022-08-17T15:48:42.872Z,2.40
2022-08-17T15:51:17.628Z,1.85
2022-08-17T15:53:52.626Z,2.42
2022-08-17T15:56:20.566Z,2.17
2022-08-17T15:58:48.754Z,1.90
2022-08-17T16:03:01.040Z,2.58
2022-08-17T16:04:26.871Z,1.85
2022-08-17T16:06:59.221Z,1.80
2022-08-17T16:09:26.811Z,2.53
2022-08-17T16:11:55.670Z,2.38
2022-08-17T16:14:34.066Z,1.92
2022-08-17T16:17:04.435Z,2.08
2022-08-17T16:19:33.418Z,1.80
2022-08-17T16:22:00.733Z,1.95
2022-08-17T16:24:28.261Z,2.20
2022-08-17T16:26:55.491Z,2.05
2022-08-17T16:29:23.037Z,2.22
2022-08-17T16:31:50.789Z,2.00
2022-08-17T16:34:18.930Z,2.17
2022-08-17T16:36:54.675Z,1.85
2022-08-17T16:39:25.532Z,1.92
2022-08-17T16:41:52.592Z,2.25
2022-08-17T16:44:21.806Z,2.08
2022-08-17T16:46:50.291Z,1.95
2022-08-17T16:49:35.281Z,2.13
2022-08-17T16:52:09.558Z,1.83
2022-08-17T16:54:41.772Z,2.00
2022-08-17T16:57:10.080Z,2.00
2022-08-17T16:59:42.483Z,2.30
2022-08-17T17:02:25.963Z,2.30
2022-08-17T17:05:22.081Z,2.33
2022-08-17T17:08:04.878Z,2.28
2022-08-17T17:10:42.432Z,1.75
2022-08-17T17:13:26.750Z,2.08
2022-08-17T17:16:21.485Z,2.20
2022-08-17T17:19:34.475Z,2.20
2022-08-17T17:22:21.740Z,2.05
2022-08-17T17:25:39.593Z,2.10
2022-08-17T17:28:53.773Z,2.30
2022-08-17T17:31:25.523Z,1.95
2022-08-17T17:34:00.325Z,2.35
2022-08-17T17:36:38.238Z,2.35
2022-08-17T17:39:17.916Z,2.55
2022-08-17T17:41:58.365Z,2.15
2022-08-17T17:44:34.435Z,2.53
2022-08-17T17:47:04.623Z,2.38
2022-08-17T17:49:39.025Z,2.25
2022-08-17T17:52:36.274Z,2.15
2022-08-17T17:55:30.689Z,2.22
2022-08-17T17:58:19.558Z,2.08
2022-08-17T18:01:06.205Z,2.20
2022-08-17T18:04:17.631Z,2.65
2022-08-17T18:07:42.296Z,2.20
2022-08-17T18:10:32.855Z,2.25
2022-08-17T18:13:26.758Z,2.30
2022-08-17T18:15:56.164Z,2.00
2022-08-17T18:18:38.552Z,2.60
2022-08-17T18:21:16.438Z,2.00
2022-08-17T18:23:57.821Z,2.45
2022-08-17T18:26:50.372Z,2.40
2022-08-17T18:29:27.953Z,2.42
2022-08-17T18:32:22.084Z,2.28
2022-08-17T18:35:27.586Z,2.25
2022-08-17T18:38:33.812Z,2.40
2022-08-17T18:41:16.298Z,2.67
2022-08-17T18:43:52.933Z,2.53
2022-08-17T18:46:28.876Z,2.70
2022-08-17T18:49:02.317Z,2.30
2022-08-17T18:51:42.337Z,2.50
2022-08-17T18:54:23.892Z,2.20
2022-08-17T18:56:57.763Z,2.15
2022-08-17T18:59:49.672Z,2.42
2022-08-17T19:02:38.653Z,2.70
2022-08-17T19:05:26.478Z,2.58
2022-08-17T19:07:54.791Z,2.58
2022-08-17T19:10:46.821Z,2.80
2022-08-17T19:13:38.796Z,2.95
2022-08-17T19:16:35.426Z,2.55
2022-08-17T19:19:28.660Z,2.30
2022-08-17T19:22:28.467Z,2.20
2022-08-17T19:25:12.072Z,2.30
2022-08-17T19:28:03.648Z,2.10
2022-08-17T19:30:31.222Z,2.22
2022-08-17T19:32:58.450Z,2.47
2022-08-17T19:35:57.369Z,2.47
2022-08-17T19:38:47.611Z,2.20
2022-08-17T19:44:15.248Z,2.03
2022-08-17T19:47:08.818Z,2.47
2022-08-17T19:50:11.671Z,2.70
2022-08-17T19:53:41.637Z,2.10
2022-08-17T19:56:25.846Z,2.35
2022-08-17T19:59:03.426Z,2.03
2022-08-17T20:01:58.999Z,2.30
2022-08-17T20:04:41.040Z,2.55
2022-08-17T20:07:19.174Z,2.20
2022-08-17T20:10:06.497Z,2.10
2022-08-17T20:12:40.175Z,2.30
2022-08-17T20:15:11.292Z,2.17
2022-08-17T20:17:42.895Z,2.35
2022-08-17T20:20:26.111Z,2.45
2022-08-17T20:23:23.783Z,2.40
2022-08-17T20:26:43.327Z,2.42
2022-08-17T20:29:37.232Z,2.45
2022-08-17T20:32:28.413Z,2.78
2022-08-17T20:35:23.959Z,2.35
2022-08-17T20:38:06.213Z,2.33
2022-08-17T20:41:01.265Z,2.65
2022-08-17T20:43:34.199Z,2.58
2022-08-17T20:46:19.042Z,2.53
2022-08-17T20:48:51.870Z,2.53
2022-08-17T20:51:32.231Z,2.50
2022-08-17T20:54:07.684Z,2.30
2022-08-17T20:56:43.769Z,2.63
2022-08-17T20:59:25.759Z,2.45
2022-08-17T21:02:18.604Z,2.47
2022-08-17T21:04:54.393Z,3.03
2022-08-17T21:07:43.117Z,2.65
2022-08-17T21:10:23.672Z,2.65
2022-08-17T21:13:23.804Z,2.42
2022-08-17T21:16:25.676Z,2.53
2022-08-17T21:19:22.163Z,2.47
2022-08-17T21:22:00.623Z,2.90
2022-08-17T21:25:03.266Z,2.65
2022-08-17T21:28:02.534Z,2.90
2022-08-17T21:30:29.346Z,2.80
2022-08-17T21:33:18.532Z,3.25
2022-08-17T21:36:13.442Z,2.67
2022-08-17T21:38:55.693Z,3.08
2022-08-17T21:41:44.085Z,2.70
2022-08-17T21:44:34.976Z,2.22
2022-08-17T21:47:28.343Z,2.92
2022-08-17T21:50:13.055Z,2.88
2022-08-17T21:52:40.484Z,2.72
2022-08-17T21:55:18.043Z,2.72
2022-08-17T21:57:53.041Z,3.25
2022-08-17T22:00:36.734Z,3.10
2022-08-17T22:03:06.726Z,2.92
2022-08-17T22:05:39.367Z,3.47
2022-08-17T22:08:19.833Z,2.95
2022-08-17T22:10:50.991Z,2.80
2022-08-17T22:13:17.958Z,3.20
2022-08-17T22:16:27.887Z,2.97
2022-08-17T22:18:54.098Z,3.17
2022-08-17T22:21:22.530Z,2.75
2022-08-17T22:24:21.339Z,2.70
2022-08-17T22:27:11.540Z,3.08
2022-08-17T22:29:59.129Z,3.05
2022-08-17T22:32:44.517Z,2.92
2022-08-17T22:35:42.726Z,3.08
2022-08-17T22:38:18.868Z,2.90
2022-08-17T22:41:33.964Z,2.70
2022-08-17T22:44:41.201Z,2.70
2022-08-17T22:47:32.302Z,2.90
2022-08-17T22:50:02.386Z,2.78
2022-08-17T22:53:02.345Z,3.05
2022-08-17T22:55:52.353Z,3.65
2022-08-17T22:58:42.489Z,3.70
2022-08-17T23:01:29.624Z,3.70
2022-08-17T23:04:05.797Z,3.72
2022-08-17T23:06:35.874Z,3.75
2022-08-17T23:09:05.756Z,4.20
2022-08-17T23:11:50.507Z,3.53
2022-08-17T23:14:20.540Z,4.25
2022-08-17T23:16:50.251Z,4.07
2022-08-17T23:19:21.617Z,4.00
2022-08-17T23:21:52.549Z,4.00
2022-08-17T23:24:45.444Z,4.10
2022-08-17T23:27:12.662Z,3.70
2022-08-17T23:29:41.917Z,3.65
2022-08-17T23:32:14.552Z,3.75
2022-08-17T23:34:44.017Z,3.28
2022-08-17T23:37:13.657Z,3.33
2022-08-17T23:39:40.749Z,3.17
2022-08-17T23:42:11.039Z,3.40
2022-08-17T23:44:39.835Z,3.35
2022-08-17T23:47:08.012Z,3.17
2022-08-17T23:49:36.168Z,3.40
2022-08-17T23:52:07.687Z,2.95
2022-08-17T23:54:43.715Z,3.10
2022-08-17T23:57:15.640Z,3.30
2022-08-17T23:59:43.905Z,2.38
